createdAt,value
2019-05-22T00:00:23.882Z,0.00
2019-05-22T00:01:23.891Z,0.00
2019-05-22T00:02:23.882Z,0.00
2019-05-22T00:03:23.861Z,0.00
2019-05-22T00:04:23.861Z,0.00
2019-05-22T00:05:23.836Z,0.00
2019-05-22T00:06:23.849Z,0.00
2019-05-22T00:07:23.811Z,0.00
2019-05-22T00:08:23.792Z,0.00
2019-05-22T00:09:23.793Z,0.00
2019-05-22T00:10:23.793Z,0.00
2019-05-22T00:11:23.783Z,0.00
2019-05-22T00:12:23.750Z,0.00
2019-05-22T00:13:23.779Z,0.00
2019-05-22T00:14:23.752Z,0.00
2019-05-22T00:15:23.723Z,0.00
2019-05-22T00:16:23.736Z,0.00
2019-05-22T00:17:23.700Z,0.00
2019-05-22T00:18:23.694Z,0.00
2019-05-22T00:19:23.682Z,0.00
2019-05-22T00:20:23.664Z,0.00
2019-05-22T00:21:23.668Z,0.00
2019-05-22T00:22:23.660Z,0.00
2019-05-22T00:23:23.639Z,0.00
2019-05-22T00:24:23.613Z,0.00
2019-05-22T00:25:23.612Z,0.00
2019-05-22T00:26:23.611Z,0.00
2019-05-22T00:27:23.596Z,0.00
2019-05-22T00:28:23.610Z,0.00
2019-05-22T00:29:23.572Z,0.00
2019-05-22T00:30:23.564Z,0.00
2019-05-22T00:31:23.552Z,0.00
2019-05-22T00:32:23.542Z,0.00
2019-05-22T00:33:23.532Z,0.00
2019-05-22T00:34:23.536Z,0.00
2019-05-22T00:35:23.559Z,0.00
2019-05-22T00:36:23.496Z,0.00
2019-05-22T00:37:23.518Z,0.00
2019-05-22T00:38:23.501Z,0.00
2019-05-22T00:39:23.462Z,0.00
2019-05-22T00:40:23.482Z,0.00
2019-05-22T00:41:23.440Z,0.00
2019-05-22T00:42:23.422Z,0.00
2019-05-22T00:43:23.423Z,0.00
2019-05-22T00:44:23.417Z,0.00
2019-05-22T00:45:23.391Z,0.00
2019-05-22T00:46:23.388Z,0.00
2019-05-22T00:47:23.370Z,0.00
2019-05-22T00:48:23.371Z,0.00
2019-05-22T00:49:23.371Z,0.00
2019-05-22T00:50:23.341Z,0.00
2019-05-22T00:51:23.332Z,0.00
2019-05-22T00:52:23.329Z,0.00
2019-05-22T00:53:23.334Z,0.00
2019-05-22T00:54:23.307Z,0.00
2019-05-22T00:55:23.578Z,0.00
2019-05-22T00:56:23.292Z,0.00
2019-05-22T00:57:23.259Z,0.00
2019-05-22T00:58:23.251Z,0.00
2019-05-22T00:59:23.251Z,0.00
2019-05-22T01:00:23.229Z,0.00
2019-05-22T01:01:23.262Z,0.00
2019-05-22T01:02:23.222Z,0.00
2019-05-22T01:03:23.212Z,0.00
2019-05-22T01:04:23.206Z,0.00
2019-05-22T01:05:23.215Z,0.00
2019-05-22T01:06:23.191Z,0.00
2019-05-22T01:07:23.177Z,0.00
2019-05-22T01:08:23.168Z,0.00
2019-05-22T01:09:23.135Z,0.00
2019-05-22T01:10:23.142Z,0.00
2019-05-22T01:11:23.140Z,0.00
2019-05-22T01:12:23.102Z,0.00
2019-05-22T01:13:23.080Z,0.00
2019-05-22T01:14:23.091Z,0.00
2019-05-22T01:15:23.089Z,0.00
2019-05-22T01:16:23.068Z,0.00
2019-05-22T01:17:23.057Z,0.00
2019-05-22T01:18:23.030Z,0.00
2019-05-22T01:19:23.055Z,0.00
2019-05-22T01:20:23.022Z,0.00
2019-05-22T01:21:23.017Z,0.00
2019-05-22T01:22:23.012Z,0.00
2019-05-22T01:23:22.978Z,0.00
2019-05-22T01:24:22.993Z,0.00
2019-05-22T01:25:22.967Z,0.00
2019-05-22T01:26:22.969Z,0.00
2019-05-22T01:27:22.958Z,0.00
2019-05-22T01:28:22.938Z,0.00
2019-05-22T01:29:22.918Z,0.00
2019-05-22T01:30:22.932Z,0.00
2019-05-22T01:31:22.913Z,0.00
2019-05-22T01:32:22.904Z,0.00
2019-05-22T01:33:22.878Z,0.00
2019-05-22T01:34:22.859Z,0.00
2019-05-22T01:35:22.848Z,0.00
2019-05-22T01:36:22.860Z,0.00
2019-05-22T01:37:22.850Z,0.00
2019-05-22T01:38:22.839Z,0.00
2019-05-22T01:39:22.818Z,0.00
2019-05-22T01:40:22.797Z,0.00
2019-05-22T01:41:22.799Z,0.00
2019-05-22T01:42:22.781Z,0.00
2019-05-22T01:43:22.769Z,0.00
2019-05-22T01:44:22.777Z,0.00
2019-05-22T01:45:22.750Z,0.00
2019-05-22T01:46:22.750Z,0.00
2019-05-22T01:47:22.718Z,0.00
2019-05-22T01:48:22.715Z,0.00
2019-05-22T01:49:22.730Z,0.00
2019-05-22T01:50:22.702Z,0.00
2019-05-22T01:51:22.704Z,0.00
2019-05-22T01:52:22.666Z,0.00
2019-05-22T01:53:22.662Z,0.00
2019-05-22T01:54:22.650Z,0.00
2019-05-22T01:55:22.634Z,0.00
2019-05-22T01:56:22.659Z,0.00
2019-05-22T01:57:22.615Z,0.00
2019-05-22T01:58:22.617Z,0.00
2019-05-22T01:59:22.598Z,0.00
2019-05-22T02:00:22.596Z,0.00
2019-05-22T02:01:22.608Z,0.00
2019-05-22T02:02:22.589Z,0.00
2019-05-22T02:03:22.558Z,0.00
2019-05-22T02:04:22.536Z,0.00
2019-05-22T02:05:22.530Z,0.00
2019-05-22T02:06:22.521Z,0.00
2019-05-22T02:07:22.528Z,0.00
2019-05-22T02:08:22.508Z,0.00
2019-05-22T02:09:22.497Z,0.00
2019-05-22T02:10:22.485Z,0.00
2019-05-22T02:11:22.480Z,0.00
2019-05-22T02:12:22.450Z,0.00
2019-05-22T02:13:22.470Z,0.00
2019-05-22T02:14:22.452Z,0.00
2019-05-22T02:15:22.430Z,0.00
2019-05-22T02:16:22.417Z,0.00
2019-05-22T02:17:22.411Z,0.00
2019-05-22T02:18:22.431Z,0.00
2019-05-22T02:19:22.377Z,0.00
2019-05-22T02:20:22.365Z,0.00
2019-05-22T02:21:22.356Z,0.00
2019-05-22T02:22:22.348Z,0.00
2019-05-22T02:23:22.345Z,0.00
2019-05-22T02:24:22.348Z,0.00
2019-05-22T02:25:22.322Z,0.00
2019-05-22T02:26:22.317Z,0.00
2019-05-22T02:27:22.299Z,0.00
2019-05-22T02:28:22.309Z,0.00
2019-05-22T02:29:22.286Z,0.00
2019-05-22T02:30:22.272Z,0.00
2019-05-22T02:31:22.263Z,0.00
2019-05-22T02:32:22.250Z,0.00
2019-05-22T02:33:22.250Z,0.00
2019-05-22T02:34:22.218Z,0.00
2019-05-22T02:35:22.224Z,0.00
2019-05-22T02:36:22.200Z,0.00
2019-05-22T02:37:22.199Z,0.00
2019-05-22T02:38:22.206Z,0.00
2019-05-22T02:39:22.169Z,0.00
2019-05-22T02:40:22.175Z,0.00
2019-05-22T02:41:22.145Z,0.00
2019-05-22T02:42:22.123Z,0.00
2019-05-22T02:43:22.138Z,0.00
2019-05-22T02:44:22.108Z,0.00
2019-05-22T02:45:22.117Z,0.00
2019-05-22T02:46:22.077Z,0.00
2019-05-22T02:47:22.095Z,0.00
2019-05-22T02:48:22.061Z,0.00
2019-05-22T02:49:22.057Z,0.00
2019-05-22T02:50:22.065Z,0.00
2019-05-22T02:51:22.035Z,0.00
2019-05-22T02:52:22.037Z,0.00
2019-05-22T02:53:22.058Z,0.00
2019-05-22T02:54:22.027Z,0.00
2019-05-22T02:55:22.026Z,0.00
2019-05-22T02:56:21.978Z,0.00
2019-05-22T02:57:21.963Z,0.00
2019-05-22T02:58:21.970Z,0.00
2019-05-22T02:59:21.942Z,4.00
2019-05-22T03:00:21.966Z,4.00
2019-05-22T03:01:21.947Z,4.00
2019-05-22T03:02:21.914Z,4.00
2019-05-22T03:03:21.908Z,0.00
2019-05-22T03:04:21.917Z,0.00
2019-05-22T03:05:21.881Z,4.00
2019-05-22T03:06:22.880Z,4.00
2019-05-22T03:07:21.897Z,4.00
2019-05-22T03:08:22.887Z,4.00
2019-05-22T03:09:21.878Z,4.00
2019-05-22T03:10:21.836Z,4.00
2019-05-22T03:11:21.815Z,4.00
2019-05-22T03:12:21.819Z,8.00
2019-05-22T03:13:21.839Z,8.00
2019-05-22T03:14:21.786Z,12.00
2019-05-22T03:15:22.589Z,16.00
2019-05-22T03:16:21.802Z,12.00
2019-05-22T03:17:21.782Z,16.00
2019-05-22T03:18:21.748Z,20.00
2019-05-22T03:19:21.747Z,20.00
2019-05-22T03:20:21.766Z,20.00
2019-05-22T03:21:21.709Z,28.00
2019-05-22T03:22:21.715Z,28.00
2019-05-22T03:23:21.693Z,36.00
2019-05-22T03:24:21.699Z,36.00
2019-05-22T03:25:21.705Z,40.00
2019-05-22T03:26:22.127Z,44.00
2019-05-22T03:27:21.662Z,48.00
2019-05-22T03:28:21.690Z,56.00
2019-05-22T03:29:21.652Z,64.00
2019-05-22T03:30:21.697Z,76.00
2019-05-22T03:31:21.629Z,84.00
2019-05-22T03:32:21.628Z,100.00
2019-05-22T03:33:21.575Z,104.00
2019-05-22T03:34:21.596Z,124.00
2019-05-22T03:35:21.567Z,128.00
2019-05-22T03:36:21.628Z,136.00
2019-05-22T03:37:21.555Z,148.00
2019-05-22T03:38:21.551Z,148.00
2019-05-22T03:39:21.560Z,152.00
2019-05-22T03:40:21.506Z,160.00
2019-05-22T03:41:21.512Z,152.00
2019-05-22T03:42:21.485Z,156.00
2019-05-22T03:43:21.465Z,168.00
2019-05-22T03:44:23.169Z,172.00
2019-05-22T03:45:21.445Z,172.00
2019-05-22T03:46:21.524Z,176.00
2019-05-22T03:47:21.462Z,184.00
2019-05-22T03:48:21.421Z,184.00
2019-05-22T03:49:29.827Z,188.00
2019-05-22T03:50:22.412Z,200.00
2019-05-22T03:51:21.435Z,224.00
2019-05-22T03:52:21.390Z,228.00
2019-05-22T03:53:21.374Z,228.00
2019-05-22T03:54:21.392Z,240.00
2019-05-22T03:55:21.357Z,260.00
2019-05-22T03:56:21.351Z,272.00
2019-05-22T03:57:23.093Z,292.00
2019-05-22T03:58:21.326Z,324.00
2019-05-22T03:59:21.389Z,324.00
2019-05-22T04:00:21.289Z,292.00
2019-05-22T04:01:21.279Z,336.00
2019-05-22T04:02:21.285Z,360.00
2019-05-22T04:03:21.419Z,364.00
2019-05-22T04:04:21.257Z,416.00
2019-05-22T04:05:21.304Z,424.00
2019-05-22T04:06:21.223Z,336.00
2019-05-22T04:07:21.219Z,420.00
2019-05-22T04:08:21.222Z,412.00
2019-05-22T04:09:21.253Z,424.00
2019-05-22T04:10:21.191Z,392.00
2019-05-22T04:11:21.182Z,376.00
2019-05-22T04:12:22.327Z,444.00
2019-05-22T04:13:21.973Z,428.00
2019-05-22T04:14:21.158Z,428.00
2019-05-22T04:15:21.288Z,448.00
2019-05-22T04:16:21.134Z,440.00
2019-05-22T04:17:21.156Z,468.00
2019-05-22T04:18:22.981Z,436.00
2019-05-22T04:19:21.147Z,432.00
2019-05-22T04:20:21.115Z,512.00
2019-05-22T04:21:21.066Z,552.00
2019-05-22T04:22:21.088Z,588.00
2019-05-22T04:23:21.045Z,516.00
2019-05-22T04:24:21.043Z,588.00
2019-05-22T04:25:21.038Z,636.00
2019-05-22T04:26:21.011Z,688.00
2019-05-22T04:27:21.000Z,732.00
2019-05-22T04:28:21.472Z,612.00
2019-05-22T04:29:20.994Z,640.00
2019-05-22T04:30:21.001Z,756.00
2019-05-22T04:31:20.973Z,772.00
2019-05-22T04:32:20.951Z,828.00
2019-05-22T04:33:20.939Z,784.00
2019-05-22T04:34:21.050Z,804.00
2019-05-22T04:35:20.914Z,804.00
2019-05-22T04:36:20.932Z,736.00
2019-05-22T04:37:20.906Z,756.00
2019-05-22T04:38:20.914Z,824.00
2019-05-22T04:39:20.892Z,796.00
2019-05-22T04:40:21.901Z,968.00
2019-05-22T04:41:20.872Z,1040.00
2019-05-22T04:42:20.851Z,1120.00
2019-05-22T04:43:21.079Z,1080.00
2019-05-22T04:44:20.812Z,1092.00
2019-05-22T04:45:21.872Z,1092.00
2019-05-22T04:46:20.845Z,1052.00
2019-05-22T04:47:20.786Z,1240.00
2019-05-22T04:48:20.839Z,1340.00
2019-05-22T04:49:21.412Z,1364.00
2019-05-22T04:50:21.327Z,1212.00
2019-05-22T04:51:20.766Z,1248.00
2019-05-22T04:52:20.730Z,1196.00
2019-05-22T04:53:20.708Z,1108.00
2019-05-22T04:54:20.742Z,964.00
2019-05-22T04:55:20.721Z,920.00
2019-05-22T04:56:20.700Z,836.00
2019-05-22T04:57:20.661Z,704.00
2019-05-22T04:58:20.665Z,740.00
2019-05-22T04:59:20.645Z,840.00
2019-05-22T05:00:20.688Z,1112.00
2019-05-22T05:01:20.698Z,1340.00
2019-05-22T05:02:20.633Z,1596.00
2019-05-22T05:03:20.623Z,1544.00
2019-05-22T05:04:20.622Z,1588.00
2019-05-22T05:05:21.962Z,3204.00
2019-05-22T05:06:23.034Z,3176.00
2019-05-22T05:07:20.741Z,3464.00
2019-05-22T05:08:20.593Z,3276.00
2019-05-22T05:09:21.342Z,3356.00
2019-05-22T05:10:20.575Z,2916.00
2019-05-22T05:11:20.522Z,2524.00
2019-05-22T05:12:20.541Z,3076.00
2019-05-22T05:13:20.544Z,3032.00
2019-05-22T05:14:20.535Z,2164.00
2019-05-22T05:15:20.532Z,2604.00
2019-05-22T05:16:20.481Z,3288.00
2019-05-22T05:17:20.499Z,3260.00
2019-05-22T05:18:20.482Z,3420.00
2019-05-22T05:19:20.437Z,3040.00
2019-05-22T05:20:22.691Z,4044.00
2019-05-22T05:21:20.432Z,2624.00
2019-05-22T05:22:20.409Z,2988.00
2019-05-22T05:23:21.450Z,3964.00
2019-05-22T05:24:20.372Z,3248.00
2019-05-22T05:25:20.369Z,2668.00
2019-05-22T05:26:20.394Z,3264.00
2019-05-22T05:27:20.369Z,3792.00
2019-05-22T05:28:20.331Z,2820.00
2019-05-22T05:29:20.319Z,3276.00
2019-05-22T05:30:21.378Z,3324.00
2019-05-22T05:31:20.388Z,3412.00
2019-05-22T05:32:20.298Z,2436.00
2019-05-22T05:33:20.302Z,2044.00
2019-05-22T05:34:20.307Z,2096.00
2019-05-22T05:35:20.263Z,2612.00
2019-05-22T05:36:20.248Z,2668.00
2019-05-22T05:37:20.257Z,2472.00
2019-05-22T05:38:20.231Z,2168.00
2019-05-22T05:39:20.252Z,2804.00
2019-05-22T05:40:20.210Z,3840.00
2019-05-22T05:41:20.210Z,3192.00
2019-05-22T05:42:20.187Z,2268.00
2019-05-22T05:43:20.218Z,2440.00
2019-05-22T05:44:20.171Z,2552.00
2019-05-22T05:45:20.203Z,3004.00
2019-05-22T05:46:20.209Z,3036.00
2019-05-22T05:47:20.138Z,2024.00
2019-05-22T05:48:20.117Z,2092.00
2019-05-22T05:49:20.156Z,2244.00
2019-05-22T05:50:20.149Z,2292.00
2019-05-22T05:51:20.107Z,2892.00
2019-05-22T05:52:20.071Z,3232.00
2019-05-22T05:53:20.067Z,3332.00
2019-05-22T05:54:20.078Z,3464.00
2019-05-22T05:55:20.036Z,3428.00
2019-05-22T05:56:20.129Z,3216.00
2019-05-22T05:57:20.026Z,3280.00
2019-05-22T05:58:20.031Z,3584.00
2019-05-22T05:59:20.013Z,3280.00
2019-05-22T06:00:19.977Z,3848.00
2019-05-22T06:01:20.006Z,3356.00
2019-05-22T06:02:19.959Z,3572.00
2019-05-22T06:03:20.314Z,3076.00
2019-05-22T06:04:33.599Z,3608.00
2019-05-22T06:05:20.929Z,4380.00
2019-05-22T06:06:20.008Z,3668.00
2019-05-22T06:07:19.915Z,3936.00
2019-05-22T06:08:19.885Z,4280.00
2019-05-22T06:09:19.907Z,4568.00
2019-05-22T06:10:19.878Z,6080.00
2019-05-22T06:11:19.963Z,7052.00
2019-05-22T06:12:19.866Z,7372.00
2019-05-22T06:13:19.838Z,6476.00
2019-05-22T06:14:19.832Z,6424.00
2019-05-22T06:15:19.901Z,6612.00
2019-05-22T06:16:20.665Z,7648.00
2019-05-22T06:17:19.916Z,7448.00
2019-05-22T06:18:19.787Z,7672.00
2019-05-22T06:19:20.058Z,6272.00
2019-05-22T06:20:19.779Z,6684.00
2019-05-22T06:21:19.793Z,8892.00
2019-05-22T06:22:19.846Z,9444.00
2019-05-22T06:23:21.182Z,9288.00
2019-05-22T06:24:20.768Z,8092.00
2019-05-22T06:25:19.777Z,7032.00
2019-05-22T06:26:19.816Z,7008.00
2019-05-22T06:27:20.238Z,7608.00
2019-05-22T06:28:20.220Z,8560.00
2019-05-22T06:29:19.741Z,8736.00
2019-05-22T06:30:19.721Z,8812.00
2019-05-22T06:31:19.783Z,8376.00
2019-05-22T06:32:20.677Z,7520.00
2019-05-22T06:33:19.741Z,7228.00
2019-05-22T06:34:21.326Z,7352.00
2019-05-22T06:35:19.655Z,6932.00
2019-05-22T06:36:19.707Z,7284.00
2019-05-22T06:37:19.712Z,7020.00
2019-05-22T06:38:19.669Z,7576.00
2019-05-22T06:39:19.636Z,7312.00
2019-05-22T06:40:19.629Z,7396.00
2019-05-22T06:41:19.631Z,8248.00
2019-05-22T06:42:19.601Z,8832.00
2019-05-22T06:43:20.399Z,9072.00
2019-05-22T06:44:20.022Z,8896.00
2019-05-22T06:45:19.726Z,8200.00
2019-05-22T06:46:19.558Z,7924.00
2019-05-22T06:47:19.508Z,8252.00
2019-05-22T06:48:19.628Z,8060.00
2019-05-22T06:49:19.532Z,7572.00
2019-05-22T06:50:19.545Z,8216.00
2019-05-22T06:51:19.912Z,8040.00
2019-05-22T06:52:19.452Z,7884.00
2019-05-22T06:53:19.444Z,8024.00
2019-05-22T06:54:19.440Z,8156.00
2019-05-22T06:55:19.382Z,7608.00
2019-05-22T06:56:23.595Z,8040.00
2019-05-22T06:57:19.458Z,8984.00
2019-05-22T06:58:19.531Z,9456.00
2019-05-22T06:59:19.426Z,9568.00
2019-05-22T07:00:19.336Z,9756.00
2019-05-22T07:01:19.359Z,9212.00
2019-05-22T07:02:20.326Z,9548.00
2019-05-22T07:03:19.389Z,9876.00
2019-05-22T07:04:19.377Z,9916.00
2019-05-22T07:05:19.357Z,9460.00
2019-05-22T07:06:19.377Z,9620.00
2019-05-22T07:07:19.302Z,9812.00
2019-05-22T07:08:19.469Z,10656.00
2019-05-22T07:09:19.309Z,11536.00
2019-05-22T07:10:19.334Z,12100.00
2019-05-22T07:11:19.281Z,12112.00
2019-05-22T07:12:19.263Z,12508.00
2019-05-22T07:13:19.208Z,13200.00
2019-05-22T07:14:19.213Z,13712.00
2019-05-22T07:15:19.229Z,13932.00
2019-05-22T07:16:19.162Z,13312.00
2019-05-22T07:17:19.154Z,13088.00
2019-05-22T07:18:19.167Z,12264.00
2019-05-22T07:19:19.146Z,10740.00
2019-05-22T07:20:19.153Z,10584.00
2019-05-22T07:21:32.080Z,10936.00
2019-05-22T07:22:20.094Z,11908.00
2019-05-22T07:23:19.184Z,12664.00
2019-05-22T07:24:19.100Z,11808.00
2019-05-22T07:25:19.095Z,10288.00
2019-05-22T07:26:19.199Z,9904.00
2019-05-22T07:27:19.082Z,10188.00
2019-05-22T07:28:19.133Z,10640.00
2019-05-22T07:29:19.234Z,10752.00
2019-05-22T07:30:19.050Z,9948.00
2019-05-22T07:31:19.092Z,9168.00
2019-05-22T07:32:19.045Z,9024.00
2019-05-22T07:33:19.214Z,9112.00
2019-05-22T07:34:18.970Z,9188.00
2019-05-22T07:35:18.992Z,9536.00
2019-05-22T07:36:19.034Z,9836.00
2019-05-22T07:37:18.932Z,9876.00
2019-05-22T07:38:18.941Z,9768.00
2019-05-22T07:39:19.977Z,10020.00
2019-05-22T07:40:19.328Z,10168.00
2019-05-22T07:41:18.980Z,10156.00
2019-05-22T07:42:18.993Z,10472.00
2019-05-22T07:43:18.978Z,10344.00
2019-05-22T07:44:18.977Z,9920.00
2019-05-22T07:45:18.906Z,9972.00
2019-05-22T07:46:18.852Z,10156.00
2019-05-22T07:47:18.895Z,10112.00
2019-05-22T07:48:18.842Z,9772.00
2019-05-22T07:49:18.803Z,9512.00
2019-05-22T07:50:18.824Z,9460.00
2019-05-22T07:51:18.795Z,9784.00
2019-05-22T07:52:18.777Z,9892.00
2019-05-22T07:53:18.796Z,9780.00
2019-05-22T07:54:22.412Z,9688.00
2019-05-22T07:55:18.791Z,9872.00
2019-05-22T07:56:19.324Z,10256.00
2019-05-22T07:57:19.028Z,10600.00
2019-05-22T07:58:19.047Z,10648.00
2019-05-22T07:59:18.738Z,10832.00
2019-05-22T08:00:18.765Z,11492.00
2019-05-22T08:01:18.704Z,12112.00
2019-05-22T08:02:18.714Z,12060.00
2019-05-22T08:03:18.659Z,11596.00
2019-05-22T08:04:18.654Z,11412.00
2019-05-22T08:05:18.644Z,11212.00
2019-05-22T08:06:18.644Z,11384.00
2019-05-22T08:07:18.631Z,11884.00
2019-05-22T08:08:18.942Z,12200.00
2019-05-22T08:09:19.147Z,12712.00
2019-05-22T08:10:19.166Z,12584.00
2019-05-22T08:11:18.824Z,12992.00
2019-05-22T08:12:18.715Z,13004.00
2019-05-22T08:13:18.612Z,13228.00
2019-05-22T08:14:18.582Z,13404.00
2019-05-22T08:15:18.634Z,13432.00
2019-05-22T08:16:18.504Z,13496.00
2019-05-22T08:17:18.615Z,14212.00
2019-05-22T08:18:18.564Z,14828.00
2019-05-22T08:19:18.672Z,16448.00
2019-05-22T08:20:18.677Z,16448.00
2019-05-22T08:21:18.542Z,15748.00
2019-05-22T08:22:18.545Z,15600.00
2019-05-22T08:23:18.576Z,15352.00
2019-05-22T08:24:18.526Z,14988.00
2019-05-22T08:25:18.439Z,14224.00
2019-05-22T08:26:19.348Z,13924.00
2019-05-22T08:27:18.448Z,14288.00
2019-05-22T08:28:18.392Z,14188.00
2019-05-22T08:29:18.372Z,13376.00
2019-05-22T08:30:18.389Z,13384.00
2019-05-22T08:31:18.343Z,14396.00
2019-05-22T08:32:18.351Z,14452.00
2019-05-22T08:33:18.384Z,14840.00
2019-05-22T08:34:18.335Z,15592.00
2019-05-22T08:35:18.345Z,16416.00
2019-05-22T08:36:18.308Z,16640.00
2019-05-22T08:37:18.306Z,16768.00
2019-05-22T08:38:18.850Z,14424.00
2019-05-22T08:39:23.451Z,12612.00
2019-05-22T08:40:18.465Z,11868.00
2019-05-22T08:41:18.306Z,12008.00
2019-05-22T08:42:18.346Z,13020.00
2019-05-22T08:43:18.329Z,14864.00
2019-05-22T08:44:18.216Z,15496.00
2019-05-22T08:45:18.197Z,15780.00
2019-05-22T08:46:18.191Z,15236.00
2019-05-22T08:47:18.505Z,14100.00
2019-05-22T08:48:18.241Z,14060.00
2019-05-22T08:49:18.167Z,14960.00
2019-05-22T08:50:18.144Z,14960.00
2019-05-22T08:51:18.132Z,14312.00
2019-05-22T08:52:23.640Z,14288.00
2019-05-22T08:53:19.145Z,14760.00
2019-05-22T08:54:18.100Z,15344.00
2019-05-22T08:55:18.092Z,15240.00
2019-05-22T08:56:18.084Z,16096.00
2019-05-22T08:57:18.070Z,15432.00
2019-05-22T08:58:18.054Z,14316.00
2019-05-22T08:59:19.926Z,13496.00
2019-05-22T09:00:18.039Z,13480.00
2019-05-22T09:01:18.023Z,13244.00
2019-05-22T09:02:18.021Z,13660.00
2019-05-22T09:03:17.998Z,14872.00
2019-05-22T09:04:17.992Z,17280.00
2019-05-22T09:05:21.263Z,20032.00
2019-05-22T09:06:18.015Z,21664.00
2019-05-22T09:07:17.979Z,22720.00
2019-05-22T09:08:17.960Z,23168.00
2019-05-22T09:09:17.963Z,23776.00
2019-05-22T09:10:17.963Z,23360.00
2019-05-22T09:11:17.918Z,23488.00
2019-05-22T09:12:17.922Z,22560.00
2019-05-22T09:13:17.920Z,23328.00
2019-05-22T09:14:17.938Z,23712.00
2019-05-22T09:15:17.872Z,24608.00
2019-05-22T09:16:17.906Z,25632.00
2019-05-22T09:17:17.919Z,28448.00
2019-05-22T09:18:17.850Z,29056.00
2019-05-22T09:19:17.844Z,27616.00
2019-05-22T09:20:17.824Z,25568.00
2019-05-22T09:21:17.874Z,24832.00
2019-05-22T09:22:17.824Z,23712.00
2019-05-22T09:23:17.851Z,21984.00
2019-05-22T09:24:17.802Z,21312.00
2019-05-22T09:25:17.771Z,21088.00
2019-05-22T09:26:17.750Z,23168.00
2019-05-22T09:27:17.770Z,26048.00
2019-05-22T09:28:17.748Z,28384.00
2019-05-22T09:29:17.750Z,29344.00
2019-05-22T09:30:17.721Z,30368.00
2019-05-22T09:31:17.720Z,32096.00
2019-05-22T09:32:17.698Z,31968.00
2019-05-22T09:33:17.682Z,29856.00
2019-05-22T09:34:17.686Z,30656.00
2019-05-22T09:35:17.679Z,30816.00
2019-05-22T09:36:17.664Z,26528.00
2019-05-22T09:37:17.662Z,27104.00
2019-05-22T09:38:17.627Z,29600.00
2019-05-22T09:39:17.628Z,25280.00
2019-05-22T09:40:17.613Z,21824.00
2019-05-22T09:41:17.611Z,20800.00
2019-05-22T09:42:17.623Z,20864.00
2019-05-22T09:43:17.575Z,21536.00
2019-05-22T09:44:17.610Z,22592.00
2019-05-22T09:45:17.551Z,24416.00
2019-05-22T09:46:17.530Z,25248.00
2019-05-22T09:47:17.539Z,27264.00
2019-05-22T09:48:17.507Z,24512.00
2019-05-22T09:49:17.499Z,23680.00
2019-05-22T09:50:17.529Z,23616.00
2019-05-22T09:51:17.492Z,22976.00
2019-05-22T09:52:17.513Z,23680.00
2019-05-22T09:53:17.471Z,24288.00
2019-05-22T09:54:17.453Z,25024.00
2019-05-22T09:55:17.470Z,27744.00
2019-05-22T09:56:17.418Z,25952.00
2019-05-22T09:57:17.450Z,30496.00
2019-05-22T09:58:17.476Z,40864.00
2019-05-22T09:59:17.403Z,32448.00
2019-05-22T10:00:17.388Z,33568.00
2019-05-22T10:01:17.372Z,31328.00
2019-05-22T10:02:17.379Z,30944.00
2019-05-22T10:03:17.369Z,28352.00
2019-05-22T10:04:17.348Z,26144.00
2019-05-22T10:05:18.376Z,24480.00
2019-05-22T10:06:17.319Z,23840.00
2019-05-22T10:07:17.306Z,25152.00
2019-05-22T10:08:17.291Z,27648.00
2019-05-22T10:09:17.314Z,31264.00
2019-05-22T10:10:17.278Z,38080.00
2019-05-22T10:11:17.260Z,31776.00
2019-05-22T10:12:17.332Z,29536.00
2019-05-22T10:13:17.414Z,35424.00
2019-05-22T10:14:17.247Z,38272.00
2019-05-22T10:15:17.234Z,37184.00
2019-05-22T10:16:17.227Z,42048.00
2019-05-22T10:17:17.205Z,38656.00
2019-05-22T10:18:17.185Z,35424.00
2019-05-22T10:19:17.202Z,30912.00
2019-05-22T10:20:17.202Z,29408.00
2019-05-22T10:21:17.148Z,29504.00
2019-05-22T10:22:17.163Z,34560.00
2019-05-22T10:23:17.143Z,37344.00
2019-05-22T10:24:17.130Z,41408.00
2019-05-22T10:25:17.447Z,34432.00
2019-05-22T10:26:17.136Z,26400.00
2019-05-22T10:27:17.104Z,24192.00
2019-05-22T10:28:17.085Z,24576.00
2019-05-22T10:29:17.097Z,26688.00
2019-05-22T10:30:17.062Z,27296.00
2019-05-22T10:31:17.920Z,30880.00
2019-05-22T10:32:17.051Z,31552.00
2019-05-22T10:33:17.049Z,30784.00
2019-05-22T10:34:17.035Z,28608.00
2019-05-22T10:35:17.010Z,26272.00
2019-05-22T10:36:17.043Z,24096.00
2019-05-22T10:37:17.021Z,26816.00
2019-05-22T10:38:16.972Z,30368.00
2019-05-22T10:39:16.962Z,34080.00
2019-05-22T10:40:16.963Z,26304.00
2019-05-22T10:41:16.945Z,27008.00
2019-05-22T10:42:16.974Z,28576.00
2019-05-22T10:43:17.017Z,27104.00
2019-05-22T10:44:16.914Z,27360.00
2019-05-22T10:45:16.926Z,27680.00
2019-05-22T10:46:16.889Z,28192.00
2019-05-22T10:47:18.769Z,34976.00
2019-05-22T10:48:16.874Z,105536.00
2019-05-22T10:49:16.862Z,104608.00
2019-05-22T10:50:16.862Z,78016.00
2019-05-22T10:51:16.842Z,110464.00
2019-05-22T10:52:16.825Z,105568.00
2019-05-22T10:53:32.353Z,27456.00
2019-05-22T10:54:17.812Z,30048.00
2019-05-22T10:55:16.844Z,21088.00
2019-05-22T10:56:16.797Z,18944.00
2019-05-22T10:57:16.773Z,20704.00
2019-05-22T10:58:16.789Z,24448.00
2019-05-22T10:59:16.743Z,35776.00
2019-05-22T11:00:16.786Z,116576.00
2019-05-22T11:01:16.736Z,22624.00
2019-05-22T11:02:16.713Z,103424.00
2019-05-22T11:03:16.709Z,104032.00
2019-05-22T11:04:19.301Z,105184.00
2019-05-22T11:05:16.711Z,104320.00
2019-05-22T11:06:16.703Z,109632.00
2019-05-22T11:07:16.676Z,111328.00
2019-05-22T11:08:16.681Z,35776.00
2019-05-22T11:09:16.646Z,118720.00
2019-05-22T11:10:16.632Z,35040.00
2019-05-22T11:11:16.674Z,116544.00
2019-05-22T11:12:16.603Z,31904.00
2019-05-22T11:13:16.606Z,20480.00
2019-05-22T11:14:16.589Z,20096.00
2019-05-22T11:15:16.572Z,17696.00
2019-05-22T11:16:16.603Z,17504.00
2019-05-22T11:17:16.566Z,44224.00
2019-05-22T11:18:16.555Z,106048.00
2019-05-22T11:19:16.533Z,110368.00
2019-05-22T11:20:16.536Z,112672.00
2019-05-22T11:21:16.530Z,51008.00
2019-05-22T11:22:16.527Z,26144.00
2019-05-22T11:23:16.499Z,32960.00
2019-05-22T11:24:16.494Z,114720.00
2019-05-22T11:25:16.473Z,99040.00
2019-05-22T11:26:16.467Z,113952.00
2019-05-22T11:27:16.471Z,61760.00
2019-05-22T11:28:16.455Z,35136.00
2019-05-22T11:29:16.464Z,42624.00
2019-05-22T11:30:16.419Z,112288.00
2019-05-22T11:31:16.406Z,109632.00
2019-05-22T11:32:16.419Z,108544.00
2019-05-22T11:33:16.395Z,109152.00
2019-05-22T11:34:16.387Z,95616.00
2019-05-22T11:35:16.379Z,109664.00
2019-05-22T11:36:16.356Z,107424.00
2019-05-22T11:37:16.380Z,106816.00
2019-05-22T11:38:16.353Z,104000.00
2019-05-22T11:39:16.333Z,103840.00
2019-05-22T11:40:16.329Z,108384.00
2019-05-22T11:41:16.319Z,110880.00
2019-05-22T11:42:16.310Z,113792.00
2019-05-22T11:43:16.294Z,46688.00
2019-05-22T11:44:16.280Z,110144.00
2019-05-22T11:45:16.294Z,108256.00
2019-05-22T11:46:16.267Z,106976.00
2019-05-22T11:47:16.273Z,109024.00
2019-05-22T11:48:16.321Z,73216.00
2019-05-22T11:49:17.669Z,114752.00
2019-05-22T11:50:16.234Z,110176.00
2019-05-22T11:51:16.218Z,109216.00
2019-05-22T11:52:16.226Z,100032.00
2019-05-22T11:53:16.271Z,70112.00
2019-05-22T11:54:16.206Z,117984.00
2019-05-22T11:55:16.166Z,120416.00
2019-05-22T15:41:40.715Z,55680.00
2019-05-22T15:42:40.744Z,24224.00
2019-05-22T15:43:40.681Z,57088.00
2019-05-22T15:44:40.677Z,16032.00
2019-05-22T15:45:40.676Z,18048.00
2019-05-22T15:46:40.766Z,20896.00
2019-05-22T15:47:53.616Z,14296.00
2019-05-22T15:48:41.670Z,14524.00
2019-05-22T15:49:40.672Z,18016.00
2019-05-22T15:50:40.621Z,22944.00
2019-05-22T15:51:40.604Z,34944.00
2019-05-22T15:52:40.579Z,13044.00
2019-05-22T15:53:40.568Z,12268.00
2019-05-22T15:54:40.603Z,12124.00
2019-05-22T15:55:40.563Z,12480.00
2019-05-22T15:56:40.540Z,12916.00
2019-05-22T15:57:40.561Z,15040.00
2019-05-22T15:58:40.527Z,15168.00
2019-05-22T15:59:40.553Z,15852.00
2019-05-22T16:00:40.516Z,16896.00
2019-05-22T16:01:40.490Z,17536.00